createdAt,value
2022-11-21T00:00:24.310Z,150.63
2022-11-21T00:03:03.035Z,155.52
2022-11-21T00:05:31.451Z,166.75
2022-11-21T00:07:59.111Z,177.85
2022-11-21T00:10:26.736Z,168.50
2022-11-21T00:12:57.622Z,155.38
2022-11-21T00:15:26.155Z,180.77
2022-11-21T00:21:11.354Z,129.07
2022-11-21T00:23:40.805Z,139.02
2022-11-21T00:26:09.177Z,120.95
2022-11-21T00:28:36.789Z,110.22
2022-11-21T00:31:05.038Z,125.00
2022-11-21T00:33:34.510Z,110.22
2022-11-21T00:36:06.026Z,105.07
2022-11-21T00:38:33.468Z,118.28
2022-11-21T00:41:01.173Z,104.68
2022-11-21T00:43:29.849Z,98.55
2022-11-21T00:45:57.717Z,96.18
2022-11-21T00:48:25.164Z,94.28
2022-11-21T00:51:00.211Z,89.72
2022-11-21T00:53:27.951Z,82.93
2022-11-21T00:55:55.647Z,98.75
2022-11-21T00:58:23.075Z,92.72
2022-11-21T01:00:50.805Z,156.23
2022-11-21T01:03:18.207Z,85.32
2022-11-21T01:05:45.849Z,86.60
2022-11-21T01:08:13.210Z,90.35
2022-11-21T01:10:40.933Z,83.38
2022-11-21T01:13:08.417Z,82.25
2022-11-21T01:15:36.092Z,77.68
2022-11-21T01:18:03.553Z,81.10
2022-11-21T01:20:31.255Z,105.78
2022-11-21T01:23:06.605Z,88.85
2022-11-21T01:25:34.656Z,96.13
2022-11-21T01:28:02.035Z,94.75
2022-11-21T01:30:29.705Z,93.18
2022-11-21T01:32:57.153Z,92.57
2022-11-21T01:35:43.373Z,77.10
2022-11-21T01:38:29.119Z,101.20
2022-11-21T01:41:17.336Z,84.63
2022-11-21T01:43:44.726Z,72.72
2022-11-21T01:46:13.786Z,79.13
2022-11-21T01:48:59.789Z,70.22
2022-11-21T01:51:39.481Z,72.07
2022-11-21T01:54:06.876Z,77.05
2022-11-21T01:56:37.712Z,67.25
2022-11-21T01:59:06.859Z,64.22
2022-11-21T02:01:35.021Z,82.63
2022-11-21T02:04:02.902Z,69.40
2022-11-21T02:06:31.342Z,73.93
2022-11-21T02:09:00.020Z,77.47
2022-11-21T02:11:31.419Z,78.20
2022-11-21T02:13:59.771Z,74.47
2022-11-21T02:16:27.756Z,76.75
2022-11-21T02:18:55.121Z,66.47
2022-11-21T02:21:25.553Z,65.55
2022-11-21T02:24:09.239Z,64.20
2022-11-21T02:26:37.670Z,63.95
2022-11-21T02:29:05.069Z,71.35
2022-11-21T02:31:32.795Z,73.90
2022-11-21T02:34:00.146Z,67.25
2022-11-21T02:36:36.806Z,73.32
2022-11-21T02:39:05.450Z,59.55
2022-11-21T02:41:35.179Z,60.80
2022-11-21T02:44:05.620Z,65.20
2022-11-21T02:46:34.797Z,66.45
2022-11-21T02:49:04.534Z,65.75
2022-11-21T02:55:14.284Z,62.15
2022-11-21T02:57:42.344Z,60.28
2022-11-21T03:00:10.222Z,55.45
2022-11-21T03:05:51.520Z,60.58
2022-11-21T03:08:38.371Z,57.13
2022-11-21T03:22:02.577Z,58.33
2022-11-21T03:35:19.032Z,53.72
2022-11-21T03:40:16.941Z,58.08
2022-11-21T03:47:41.118Z,61.90
2022-11-21T03:55:05.304Z,58.28
2022-11-21T04:00:01.033Z,55.30
2022-11-21T04:07:24.944Z,56.40
2022-11-21T04:09:52.624Z,52.35
2022-11-21T04:23:17.044Z,61.95
2022-11-21T04:25:44.522Z,59.95
2022-11-21T04:28:12.519Z,57.50
2022-11-21T04:30:39.930Z,61.70
2022-11-21T04:33:07.833Z,59.38
2022-11-21T04:35:35.362Z,65.28
2022-11-21T04:38:03.052Z,65.82
2022-11-21T04:40:30.483Z,67.47
2022-11-21T04:42:58.144Z,59.05
2022-11-21T04:45:25.538Z,62.78
2022-11-21T04:47:53.295Z,61.90
2022-11-21T04:52:50.491Z,62.10
2022-11-21T04:58:23.171Z,56.47
2022-11-21T05:00:50.685Z,58.05
2022-11-21T05:03:18.371Z,56.15
2022-11-21T05:05:46.121Z,62.78
2022-11-21T05:08:13.807Z,60.83
2022-11-21T05:10:41.251Z,60.97
2022-11-21T05:13:09.647Z,59.65
2022-11-21T05:15:37.083Z,55.10
2022-11-21T05:18:04.838Z,57.42
2022-11-21T05:20:36.615Z,54.42
2022-11-21T05:25:32.023Z,52.60
2022-11-21T05:28:02.763Z,53.88
2022-11-21T05:30:30.750Z,50.75
2022-11-21T05:32:58.945Z,53.97
2022-11-21T05:35:26.804Z,51.15
2022-11-21T05:37:58.676Z,48.08
2022-11-21T05:40:26.818Z,51.90
2022-11-21T05:42:55.036Z,51.58
2022-11-21T05:45:22.944Z,51.35
2022-11-21T05:47:51.176Z,52.63
2022-11-21T05:50:19.145Z,50.15
2022-11-21T05:52:47.281Z,46.22
2022-11-21T05:55:15.259Z,52.17
2022-11-21T05:57:43.741Z,54.47
2022-11-21T06:00:12.153Z,48.22
2022-11-21T06:02:40.451Z,52.97
2022-11-21T06:05:08.777Z,53.08
2022-11-21T06:07:37.076Z,49.65
2022-11-21T06:10:05.416Z,49.83
2022-11-21T06:12:33.528Z,47.90
2022-11-21T06:15:01.461Z,47.55
2022-11-21T06:17:29.653Z,52.15
2022-11-21T06:19:57.558Z,52.05
2022-11-21T06:22:25.773Z,59.83
2022-11-21T06:24:53.641Z,52.45
2022-11-21T06:27:21.918Z,49.33
2022-11-21T06:29:49.779Z,51.17
2022-11-21T06:32:18.372Z,44.00
2022-11-21T06:34:46.309Z,48.63
2022-11-21T06:37:14.464Z,49.85
2022-11-21T06:39:42.325Z,50.35
2022-11-21T06:42:10.559Z,48.20
2022-11-21T06:44:38.528Z,45.40
2022-11-21T06:47:06.795Z,45.45
2022-11-21T06:49:34.707Z,47.58
2022-11-21T06:52:02.922Z,44.38
2022-11-21T06:54:31.111Z,48.95
2022-11-21T06:56:59.537Z,45.50
2022-11-21T06:59:27.454Z,41.17
2022-11-21T07:05:33.769Z,43.20
2022-11-21T07:08:02.893Z,43.40
2022-11-21T07:10:31.226Z,41.10
2022-11-21T07:13:00.944Z,42.65
2022-11-21T07:15:28.816Z,78.88
2022-11-21T07:21:50.509Z,43.83
2022-11-21T07:24:18.671Z,48.88
2022-11-21T07:26:46.599Z,42.65
2022-11-21T07:29:14.819Z,40.65
2022-11-21T07:31:55.694Z,46.47
2022-11-21T07:34:23.923Z,42.05
2022-11-21T07:36:51.819Z,43.63
2022-11-21T07:39:20.013Z,43.53
2022-11-21T07:41:48.049Z,35.47
2022-11-21T07:44:16.492Z,37.92
2022-11-21T07:46:44.380Z,45.53
2022-11-21T07:49:12.625Z,42.83
2022-11-21T07:51:40.569Z,40.50
2022-11-21T07:54:08.810Z,42.67
2022-11-21T07:56:36.774Z,39.33
2022-11-21T07:59:05.080Z,39.53
2022-11-21T08:01:33.047Z,39.03
2022-11-21T08:04:01.315Z,40.55
2022-11-21T08:06:29.183Z,40.90
2022-11-21T08:08:57.352Z,38.22
2022-11-21T08:11:25.270Z,39.45
2022-11-21T08:13:53.456Z,43.35
2022-11-21T08:16:21.359Z,42.17
2022-11-21T08:18:49.623Z,47.22
2022-11-21T08:21:20.051Z,50.13
2022-11-21T08:23:48.793Z,62.05
2022-11-21T08:26:16.866Z,51.35
2022-11-21T08:28:45.131Z,47.38
2022-11-21T08:31:13.066Z,63.75
2022-11-21T08:33:41.280Z,34.13
2022-11-21T08:36:09.429Z,34.22
2022-11-21T08:38:37.702Z,23.63
2022-11-21T08:41:05.613Z,25.10
2022-11-21T08:43:33.810Z,23.80
2022-11-21T08:46:01.808Z,22.50
2022-11-21T08:48:30.077Z,25.67
2022-11-21T08:50:57.996Z,27.88
2022-11-21T08:53:26.383Z,26.10
2022-11-21T08:55:54.756Z,25.95
2022-11-21T08:58:23.090Z,27.58
2022-11-21T09:00:51.049Z,25.55
2022-11-21T09:03:23.630Z,25.85
2022-11-21T09:05:59.643Z,25.13
2022-11-21T09:08:29.604Z,22.83
2022-11-21T09:10:57.580Z,24.17
2022-11-21T09:13:27.389Z,20.98
2022-11-21T09:15:55.316Z,17.73
2022-11-21T09:18:23.644Z,20.33
2022-11-21T09:20:54.581Z,24.45
2022-11-21T09:23:22.758Z,21.10
2022-11-21T09:25:50.621Z,22.17
2022-11-21T09:28:18.957Z,18.40
2022-11-21T09:30:46.876Z,24.10
2022-11-21T09:33:16.376Z,28.35
2022-11-21T09:35:45.059Z,19.08
2022-11-21T09:38:13.344Z,24.83
2022-11-21T09:40:45.712Z,18.88
2022-11-21T09:43:19.574Z,21.25
2022-11-21T09:45:52.527Z,20.35
2022-11-21T09:48:30.199Z,23.05
2022-11-21T09:51:05.576Z,26.63
2022-11-21T09:54:02.241Z,23.85
2022-11-21T09:56:37.052Z,17.88
2022-11-21T09:59:08.073Z,18.08
2022-11-21T10:01:38.650Z,23.40
2022-11-21T10:04:06.970Z,16.75
2022-11-21T10:07:06.149Z,19.73
2022-11-21T10:10:01.789Z,15.52
2022-11-21T10:12:44.201Z,19.27
2022-11-21T10:15:22.508Z,15.65
2022-11-21T10:18:08.640Z,20.83
2022-11-21T10:21:24.009Z,17.33
2022-11-21T10:23:54.607Z,17.88
2022-11-21T10:26:43.295Z,18.52
2022-11-21T10:29:22.346Z,38.38
2022-11-21T10:31:52.441Z,21.23
2022-11-21T10:34:25.826Z,38.88
2022-11-21T10:37:06.399Z,18.38
2022-11-21T10:40:16.081Z,13.10
2022-11-21T10:43:20.193Z,14.35
2022-11-21T10:45:49.972Z,12.82
2022-11-21T10:48:18.452Z,12.02
2022-11-21T10:51:18.479Z,10.15
2022-11-21T10:53:49.611Z,13.23
2022-11-21T10:56:25.201Z,13.90
2022-11-21T10:58:58.038Z,13.18
2022-11-21T11:01:34.381Z,15.13
2022-11-21T11:08:28.415Z,11.48
2022-11-21T11:11:04.481Z,13.43
2022-11-21T11:13:49.456Z,11.00
2022-11-21T11:16:18.980Z,14.88
2022-11-21T11:18:47.792Z,15.18
2022-11-21T11:21:20.439Z,8.02
2022-11-21T11:23:49.513Z,13.30
2022-11-21T11:26:19.934Z,14.40
2022-11-21T11:28:47.922Z,14.80
2022-11-21T11:31:15.793Z,13.38
2022-11-21T11:33:50.143Z,15.98
2022-11-21T11:36:53.346Z,10.52
2022-11-21T11:39:36.106Z,10.30
2022-11-21T11:42:03.781Z,17.00
2022-11-21T11:44:41.405Z,15.77
2022-11-21T11:47:16.247Z,11.48
2022-11-21T11:49:47.945Z,13.40
2022-11-21T11:52:15.864Z,28.38
2022-11-21T11:54:48.325Z,26.10
2022-11-21T11:57:19.792Z,31.20
2022-11-21T11:59:49.393Z,30.15
2022-11-21T12:02:33.688Z,29.63
2022-11-21T12:05:09.264Z,17.90
2022-11-21T12:10:34.199Z,33.30
2022-11-21T12:13:06.649Z,11.60
2022-11-21T12:15:47.137Z,11.48
2022-11-21T12:18:17.441Z,14.68
2022-11-21T12:20:47.856Z,9.90
2022-11-21T12:23:15.725Z,17.27
2022-11-21T12:25:53.845Z,14.35
2022-11-21T12:28:41.780Z,9.13
2022-11-21T12:31:28.139Z,9.95
2022-11-21T12:34:09.658Z,12.85
2022-11-21T12:36:55.699Z,10.88
2022-11-21T12:39:26.414Z,8.45
2022-11-21T12:42:03.481Z,11.82
2022-11-21T12:44:43.554Z,12.82
2022-11-21T12:47:17.221Z,12.88
2022-11-21T12:50:08.152Z,19.20
2022-11-21T12:52:44.316Z,17.20
2022-11-21T12:55:19.648Z,13.55
2022-11-21T12:58:05.179Z,15.40
2022-11-21T13:00:38.640Z,16.42
2022-11-21T13:03:29.150Z,16.58
2022-11-21T13:05:57.874Z,18.38
2022-11-21T13:08:26.866Z,20.98
2022-11-21T13:11:03.584Z,20.35
2022-11-21T13:13:33.202Z,23.33
2022-11-21T13:19:35.873Z,17.30
2022-11-21T13:22:03.586Z,18.83
2022-11-21T13:24:47.210Z,17.13
2022-11-21T13:27:38.540Z,18.33
2022-11-21T13:30:06.682Z,16.60
2022-11-21T13:32:37.564Z,18.88
2022-11-21T13:35:19.945Z,15.40
2022-11-21T13:37:50.383Z,16.73
2022-11-21T13:40:26.726Z,18.00
2022-11-21T13:43:31.396Z,11.82
2022-11-21T13:45:54.440Z,12.40
2022-11-21T13:55:16.315Z,11.73
2022-11-21T13:57:46.832Z,11.20
2022-11-21T14:00:20.049Z,12.02
2022-11-21T14:02:53.534Z,13.75
2022-11-21T14:05:35.330Z,11.23
2022-11-21T14:08:22.608Z,14.50
2022-11-21T14:10:51.349Z,15.98
2022-11-21T14:13:21.585Z,15.18
2022-11-21T14:15:58.067Z,13.98
2022-11-21T14:18:25.860Z,16.45
2022-11-21T14:20:53.716Z,10.48
2022-11-21T14:23:22.337Z,16.05
2022-11-21T14:25:53.056Z,14.10
2022-11-21T14:28:26.756Z,15.20
2022-11-21T14:30:58.625Z,16.63
2022-11-21T14:33:35.958Z,17.97
2022-11-21T14:36:05.415Z,17.02
2022-11-21T14:38:34.980Z,17.52
2022-11-21T14:41:31.673Z,14.68
2022-11-21T14:43:59.021Z,21.42
2022-11-21T14:46:36.466Z,15.80
2022-11-21T14:49:16.059Z,16.38
2022-11-21T14:52:02.390Z,18.20
2022-11-21T14:54:31.906Z,22.50
2022-11-21T14:57:01.831Z,20.67
2022-11-21T14:59:29.268Z,18.40
2022-11-21T15:01:58.926Z,19.55
2022-11-21T15:04:28.145Z,21.48
2022-11-21T15:06:56.174Z,23.60
2022-11-21T15:12:11.812Z,25.17
2022-11-21T15:14:42.598Z,26.10
2022-11-21T15:17:16.128Z,28.65
2022-11-21T15:19:43.812Z,28.88
2022-11-21T15:22:26.119Z,27.13
2022-11-21T15:25:05.547Z,27.77
2022-11-21T15:31:16.299Z,29.58
2022-11-21T15:34:12.584Z,29.10
2022-11-21T15:40:03.599Z,24.20
2022-11-21T15:42:31.181Z,27.98
2022-11-21T15:45:03.091Z,26.30
2022-11-21T15:47:30.703Z,23.35
2022-11-21T15:49:58.256Z,25.00
2022-11-21T15:52:25.900Z,27.13
2022-11-21T15:54:53.330Z,28.23
2022-11-21T15:59:53.269Z,26.85
2022-11-21T16:02:20.931Z,26.08
2022-11-21T16:04:49.480Z,24.30
2022-11-21T16:07:17.411Z,27.92
2022-11-21T16:09:44.922Z,25.48
2022-11-21T16:12:12.635Z,26.67
2022-11-21T16:14:40.028Z,27.55
2022-11-21T16:17:08.070Z,26.38
2022-11-21T16:19:53.802Z,29.50
2022-11-21T16:22:21.420Z,26.45
2022-11-21T16:24:57.059Z,27.83
2022-11-21T16:27:24.760Z,27.73
2022-11-21T16:29:52.134Z,24.58
2022-11-21T16:32:19.958Z,28.67
2022-11-21T16:34:48.252Z,24.80
2022-11-21T16:37:15.939Z,25.40
2022-11-21T16:39:43.467Z,32.50
2022-11-21T16:42:11.173Z,23.38
2022-11-21T16:44:38.556Z,20.80
2022-11-21T16:47:08.534Z,20.80
2022-11-21T16:49:36.556Z,21.48
2022-11-21T16:52:04.163Z,20.73
2022-11-21T16:54:31.668Z,19.85
2022-11-21T16:56:59.579Z,20.90
2022-11-21T16:59:27.359Z,19.90
2022-11-21T17:01:55.280Z,18.83
2022-11-21T17:04:22.627Z,17.52
2022-11-21T17:06:50.291Z,19.13
2022-11-21T17:09:17.658Z,20.08
2022-11-21T17:11:45.304Z,20.30
2022-11-21T17:14:12.978Z,24.30
2022-11-21T17:16:40.799Z,20.92
2022-11-21T17:19:10.668Z,19.63
2022-11-21T17:21:38.344Z,21.88
2022-11-21T17:24:05.908Z,17.67
2022-11-21T17:26:35.420Z,22.77
2022-11-21T17:29:02.792Z,22.27
2022-11-21T17:31:31.122Z,19.33
2022-11-21T17:33:59.191Z,22.70
2022-11-21T17:39:59.231Z,23.30
2022-11-21T17:42:27.046Z,27.70
2022-11-21T17:44:54.391Z,23.35
2022-11-21T17:47:22.033Z,27.10
2022-11-21T17:49:49.375Z,23.92
2022-11-21T17:52:17.079Z,24.27
2022-11-21T17:54:44.535Z,23.80
2022-11-21T17:57:12.252Z,21.70
2022-11-21T18:03:06.809Z,23.40
2022-11-21T18:05:34.150Z,22.90
2022-11-21T18:08:01.800Z,23.83
2022-11-21T18:10:42.647Z,26.38
2022-11-21T18:13:11.280Z,26.33
2022-11-21T18:15:38.648Z,24.75
2022-11-21T18:18:06.417Z,22.77
2022-11-21T18:20:33.762Z,25.10
2022-11-21T18:23:01.443Z,23.88
2022-11-21T18:25:28.874Z,26.00
2022-11-21T18:27:56.698Z,27.02
2022-11-21T18:30:24.054Z,23.02
2022-11-21T18:32:51.741Z,26.05
2022-11-21T18:35:19.121Z,21.90
2022-11-21T18:37:47.007Z,26.13
2022-11-21T18:40:14.493Z,25.73
2022-11-21T18:42:42.178Z,29.35
2022-11-21T18:45:09.791Z,26.65
2022-11-21T18:47:37.595Z,25.23
2022-11-21T18:50:05.366Z,24.13
2022-11-21T18:52:33.071Z,26.75
2022-11-21T18:55:00.477Z,25.15
2022-11-21T18:57:28.183Z,22.40
2022-11-21T18:59:55.756Z,29.33
2022-11-21T19:02:23.426Z,27.00
2022-11-21T19:04:50.917Z,26.83
2022-11-21T19:07:18.750Z,28.45
2022-11-21T19:09:46.257Z,23.70
2022-11-21T19:12:14.023Z,20.15
2022-11-21T19:14:41.423Z,21.63
2022-11-21T19:17:09.071Z,18.17
2022-11-21T19:19:36.469Z,24.23
2022-11-21T19:22:04.164Z,17.52
2022-11-21T19:24:31.596Z,23.42
2022-11-21T19:26:59.356Z,23.17
2022-11-21T19:29:27.067Z,22.98
2022-11-21T19:31:54.993Z,20.45
2022-11-21T19:34:22.424Z,22.95
2022-11-21T19:36:50.228Z,20.90
2022-11-21T19:39:17.624Z,20.30
2022-11-21T19:41:47.607Z,22.80
2022-11-21T19:44:15.060Z,19.60
2022-11-21T19:46:42.780Z,29.48
2022-11-21T19:49:10.924Z,27.00
2022-11-21T19:51:40.347Z,29.85
2022-11-21T19:54:08.819Z,26.48
2022-11-21T19:56:36.908Z,28.60
2022-11-21T19:59:04.544Z,42.47
2022-11-21T20:01:33.098Z,54.03
2022-11-21T20:04:01.966Z,40.30
2022-11-21T20:06:29.680Z,45.67
2022-11-21T20:09:00.937Z,49.08
2022-11-21T20:11:29.491Z,39.97
2022-11-21T20:13:57.348Z,36.05
2022-11-21T20:16:26.405Z,39.22
2022-11-21T20:18:54.419Z,45.35
2022-11-21T20:21:22.191Z,27.95
2022-11-21T20:23:49.566Z,31.42
2022-11-21T20:26:18.136Z,38.97
2022-11-21T20:28:45.588Z,38.33
2022-11-21T20:31:17.486Z,49.97
2022-11-21T20:33:46.268Z,43.67
2022-11-21T20:36:17.993Z,76.32
2022-11-21T20:38:49.743Z,70.60
2022-11-21T20:41:17.926Z,61.47
2022-11-21T20:44:27.362Z,61.50
2022-11-21T20:46:33.390Z,33.78
2022-11-21T20:49:01.086Z,32.13
2022-11-21T20:54:16.117Z,44.15
2022-11-21T20:56:44.566Z,36.95
2022-11-21T20:59:12.174Z,32.83
2022-11-21T21:01:40.003Z,31.05
2022-11-21T21:04:07.473Z,48.22
2022-11-21T21:06:35.297Z,49.03
2022-11-21T21:09:02.708Z,99.22
2022-11-21T21:11:50.965Z,92.00
2022-11-21T21:14:17.687Z,70.32
2022-11-21T21:16:45.340Z,72.70
2022-11-21T21:19:12.711Z,60.13
2022-11-21T21:21:40.484Z,54.55
2022-11-21T21:24:08.747Z,53.22
2022-11-21T21:26:42.173Z,54.58
2022-11-21T21:29:11.098Z,53.78
2022-11-21T21:31:38.842Z,64.03
2022-11-21T21:34:06.248Z,62.20
2022-11-21T21:36:34.017Z,51.08
2022-11-21T21:39:01.737Z,53.83
2022-11-21T21:41:30.231Z,45.20
2022-11-21T21:43:57.989Z,54.08
2022-11-21T21:46:26.484Z,45.05
2022-11-21T21:48:54.754Z,47.65
2022-11-21T21:51:26.307Z,45.20
2022-11-21T21:53:54.226Z,45.08
2022-11-21T21:56:22.780Z,53.65
2022-11-21T21:58:50.684Z,52.72
2022-11-21T22:01:19.499Z,50.00
2022-11-21T22:03:47.442Z,53.90
2022-11-21T22:06:47.355Z,60.63
2022-11-21T22:09:14.857Z,79.90
2022-11-21T22:11:42.548Z,116.32
2022-11-21T22:14:14.723Z,122.07
2022-11-21T22:16:43.282Z,51.70
2022-11-21T22:19:10.809Z,47.65
2022-11-21T22:21:39.118Z,53.58
2022-11-21T22:24:29.237Z,62.33
2022-11-21T22:26:56.982Z,68.10
2022-11-21T22:29:24.431Z,64.20
2022-11-21T22:31:52.138Z,77.72
2022-11-21T22:34:19.545Z,102.32
2022-11-21T22:36:47.267Z,107.80
2022-11-21T22:39:15.234Z,97.22
2022-11-21T22:41:42.935Z,78.85
2022-11-21T22:44:10.340Z,70.55
2022-11-21T22:46:38.112Z,71.68
2022-11-21T22:49:05.507Z,59.80
2022-11-21T22:51:33.188Z,76.70
2022-11-21T22:54:00.639Z,67.57
2022-11-21T22:56:28.506Z,60.55
2022-11-21T22:58:55.908Z,53.15
2022-11-21T23:01:24.858Z,43.83
2022-11-21T23:03:52.855Z,67.15
2022-11-21T23:06:21.711Z,47.83
2022-11-21T23:08:49.588Z,41.55
2022-11-21T23:11:21.029Z,56.20
2022-11-21T23:13:48.912Z,67.53
2022-11-21T23:16:17.212Z,49.55
2022-11-21T23:18:44.899Z,55.60
2022-11-21T23:21:13.004Z,78.53
2022-11-21T23:23:40.732Z,45.63
2022-11-21T23:26:08.438Z,38.63
2022-11-21T23:28:35.840Z,34.35
2022-11-21T23:31:03.567Z,40.58
2022-11-21T23:33:30.966Z,37.67
2022-11-21T23:35:58.711Z,46.22
2022-11-21T23:38:26.166Z,36.22
2022-11-21T23:40:53.902Z,46.08
2022-11-21T23:43:21.296Z,45.55
2022-11-21T23:45:52.355Z,33.60
2022-11-21T23:48:19.926Z,41.33
2022-11-21T23:50:48.296Z,43.15
2022-11-21T23:53:15.638Z,45.88
2022-11-21T23:55:43.984Z,40.53
2022-11-21T23:58:11.841Z,39.67
